createdAt,value
2023-02-05T00:01:04.638Z,35.67
2023-02-05T00:03:31.458Z,38.67
2023-02-05T00:05:59.780Z,26.50
2023-02-05T00:08:26.660Z,29.75
2023-02-05T00:10:54.026Z,42.33
2023-02-05T00:13:21.085Z,30.75
2023-02-05T00:15:47.922Z,32.25
2023-02-05T00:18:14.958Z,26.00
2023-02-05T00:20:42.137Z,22.50
2023-02-05T00:23:10.351Z,23.00
2023-02-05T00:25:37.198Z,29.75
2023-02-05T00:28:04.408Z,23.25
2023-02-05T00:30:31.372Z,25.00
2023-02-05T00:32:58.288Z,22.50
2023-02-05T00:35:25.385Z,15.00
2023-02-05T00:37:52.272Z,16.75
2023-02-05T00:40:20.849Z,23.50
2023-02-05T00:42:47.653Z,23.75
2023-02-05T00:45:19.228Z,22.50
2023-02-05T00:47:46.079Z,17.00
2023-02-05T00:50:13.004Z,22.00
2023-02-05T00:52:39.849Z,23.75
2023-02-05T00:55:07.794Z,23.00
2023-02-05T00:57:35.971Z,24.00
2023-02-05T01:00:03.443Z,25.00
2023-02-05T01:02:30.314Z,24.00
2023-02-05T01:04:58.099Z,23.25
2023-02-05T01:07:25.064Z,25.50
2023-02-05T01:10:01.347Z,22.75
2023-02-05T01:12:30.229Z,24.00
2023-02-05T01:14:58.839Z,27.50
2023-02-05T01:17:25.785Z,24.25
2023-02-05T01:19:52.823Z,26.50
2023-02-05T01:22:20.013Z,28.00
2023-02-05T01:24:47.130Z,27.67
2023-02-05T01:27:14.083Z,25.00
2023-02-05T01:29:41.330Z,24.67
2023-02-05T01:32:09.667Z,25.25
2023-02-05T01:34:36.990Z,30.25
2023-02-05T01:37:03.969Z,26.67
2023-02-05T01:39:33.064Z,27.00
2023-02-05T01:42:00.600Z,26.67
2023-02-05T01:44:30.981Z,27.25
2023-02-05T01:46:57.841Z,28.00
2023-02-05T01:49:32.899Z,32.50
2023-02-05T01:55:06.956Z,26.50
2023-02-05T01:57:36.460Z,26.67
2023-02-05T02:00:05.875Z,28.33
2023-02-05T02:02:42.356Z,26.00
2023-02-05T02:05:17.355Z,28.67
2023-02-05T02:07:44.638Z,25.25
2023-02-05T02:10:17.485Z,23.75
2023-02-05T02:12:48.479Z,25.25
2023-02-05T02:15:19.296Z,24.00
2023-02-05T02:17:51.785Z,24.25
2023-02-05T02:20:25.856Z,29.00
2023-02-05T02:23:20.246Z,23.25
2023-02-05T02:26:33.508Z,28.75
2023-02-05T02:29:04.214Z,29.00
2023-02-05T02:31:40.895Z,28.75
2023-02-05T02:34:17.656Z,27.75
2023-02-05T02:36:56.967Z,23.50
2023-02-05T02:39:32.516Z,30.50
2023-02-05T02:42:07.226Z,28.25
2023-02-05T02:44:46.293Z,28.25
2023-02-05T02:47:18.769Z,32.00
2023-02-05T02:49:53.894Z,28.50
2023-02-05T02:52:25.086Z,25.25
2023-02-05T02:54:58.894Z,29.00
2023-02-05T02:57:29.631Z,25.25
2023-02-05T03:00:05.626Z,26.25
2023-02-05T03:05:38.337Z,26.50
2023-02-05T03:08:17.358Z,26.00
2023-02-05T03:10:53.998Z,19.50
2023-02-05T03:13:21.209Z,28.00
2023-02-05T03:16:11.534Z,26.50
2023-02-05T03:18:51.914Z,28.00
2023-02-05T03:21:33.113Z,26.75
2023-02-05T03:24:00.342Z,25.50
2023-02-05T03:26:30.421Z,30.25
2023-02-05T03:29:25.336Z,21.00
2023-02-05T03:32:08.806Z,27.50
2023-02-05T03:34:51.155Z,27.00
2023-02-05T03:37:32.686Z,22.50
2023-02-05T03:40:17.852Z,26.00
2023-02-05T03:43:04.983Z,28.25
2023-02-05T03:45:48.617Z,25.75
2023-02-05T03:48:43.778Z,32.75
2023-02-05T03:51:26.749Z,26.00
2023-02-05T03:54:08.765Z,24.75
2023-02-05T03:56:52.299Z,34.25
2023-02-05T03:59:22.982Z,27.25
2023-02-05T04:01:51.933Z,28.50
2023-02-05T04:04:21.717Z,26.25
2023-02-05T04:06:58.973Z,27.75
2023-02-05T04:09:26.100Z,26.25
2023-02-05T04:11:55.576Z,26.25
2023-02-05T04:14:22.672Z,31.50
2023-02-05T04:16:51.226Z,28.50
2023-02-05T04:19:22.173Z,27.75
2023-02-05T04:21:49.383Z,30.33
2023-02-05T04:24:16.624Z,27.00
2023-02-05T04:26:43.864Z,31.75
2023-02-05T04:29:10.703Z,33.67
2023-02-05T04:31:43.066Z,33.00
2023-02-05T04:34:10.864Z,23.75
2023-02-05T04:36:40.054Z,29.25
2023-02-05T04:39:08.029Z,29.25
2023-02-05T04:41:47.752Z,29.75
2023-02-05T04:44:14.582Z,30.25
2023-02-05T04:46:55.284Z,27.67
2023-02-05T04:49:25.563Z,29.50
2023-02-05T04:51:59.700Z,27.50
2023-02-05T04:54:26.662Z,32.00
2023-02-05T04:56:53.615Z,29.00
2023-02-05T04:59:20.419Z,24.25
2023-02-05T05:01:47.284Z,28.75
2023-02-05T05:04:23.416Z,25.25
2023-02-05T05:07:10.910Z,18.50
2023-02-05T05:09:46.372Z,26.25
2023-02-05T05:12:18.945Z,30.33
2023-02-05T05:14:46.956Z,32.50
2023-02-05T05:17:14.148Z,24.50
2023-02-05T05:34:04.470Z,32.33
2023-02-05T05:36:31.730Z,33.00
2023-02-05T05:38:58.742Z,32.33
2023-02-05T05:41:25.564Z,31.33
2023-02-05T05:43:55.972Z,29.33
2023-02-05T05:46:25.564Z,29.33
2023-02-05T05:48:55.723Z,28.00
2023-02-05T05:51:26.206Z,28.25
2023-02-05T05:53:53.762Z,28.25
2023-02-05T05:56:22.581Z,29.75
2023-02-05T05:58:50.688Z,25.00
2023-02-05T06:01:19.764Z,25.50
2023-02-05T06:03:46.533Z,32.25
2023-02-05T06:06:13.626Z,22.75
2023-02-05T06:08:41.783Z,29.75
2023-02-05T06:11:08.857Z,25.50
2023-02-05T06:13:38.790Z,26.25
2023-02-05T06:16:06.799Z,30.50
2023-02-05T06:18:33.854Z,27.50
2023-02-05T06:21:01.396Z,29.00
2023-02-05T06:23:37.649Z,26.75
2023-02-05T06:26:07.460Z,26.75
2023-02-05T06:28:34.284Z,28.25
2023-02-05T06:31:01.503Z,29.75
2023-02-05T06:59:51.237Z,33.25
2023-02-05T07:02:18.089Z,36.00
2023-02-05T07:07:54.751Z,27.25
2023-02-05T07:10:22.176Z,32.50
2023-02-05T07:12:49.489Z,29.25
2023-02-05T07:15:18.970Z,27.50
2023-02-05T07:17:45.949Z,26.75
2023-02-05T07:20:12.798Z,33.75
2023-02-05T07:22:39.795Z,28.75
2023-02-05T07:25:07.839Z,27.50
2023-02-05T07:27:34.622Z,47.00
2023-02-05T07:30:01.452Z,52.33
2023-02-05T07:32:29.654Z,31.75
2023-02-05T07:34:56.454Z,26.50
2023-02-05T07:37:23.320Z,27.25
2023-02-05T07:39:50.213Z,23.00
2023-02-05T07:42:16.978Z,27.25
2023-02-05T07:44:58.248Z,18.75
2023-02-05T07:47:25.960Z,20.25
2023-02-05T07:49:54.129Z,17.50
2023-02-05T07:52:22.427Z,18.50
2023-02-05T07:54:49.284Z,24.00
2023-02-05T07:57:16.237Z,25.00
2023-02-05T07:59:43.085Z,41.67
2023-02-05T08:02:10.821Z,35.75
2023-02-05T08:04:37.863Z,35.50
2023-02-05T08:07:06.240Z,27.25
2023-02-05T08:09:33.149Z,28.25
2023-02-05T08:12:00.011Z,26.75
2023-02-05T08:14:26.758Z,27.00
2023-02-05T08:16:54.003Z,27.75
2023-02-05T08:19:20.810Z,24.50
2023-02-05T08:21:47.587Z,36.75
2023-02-05T08:24:15.954Z,21.75
2023-02-05T08:26:42.936Z,22.50
2023-02-05T08:29:10.819Z,19.50
2023-02-05T08:31:38.201Z,59.33
2023-02-05T08:34:05.513Z,21.50
2023-02-05T08:36:32.530Z,20.50
2023-02-05T08:38:59.401Z,18.00
2023-02-05T08:41:28.069Z,25.50
2023-02-05T08:43:54.902Z,20.50
2023-02-05T08:46:24.231Z,22.50
2023-02-05T08:48:51.726Z,20.00
2023-02-05T08:51:20.652Z,23.50
2023-02-05T08:53:47.556Z,21.00
2023-02-05T08:56:14.919Z,33.67
2023-02-05T08:58:43.531Z,15.75
2023-02-05T09:01:14.256Z,31.33
2023-02-05T09:03:41.398Z,27.33
2023-02-05T09:06:11.649Z,24.33
2023-02-05T09:08:38.879Z,31.33
2023-02-05T09:11:07.522Z,21.50
2023-02-05T09:13:35.135Z,20.50
2023-02-05T09:16:14.327Z,27.67
2023-02-05T09:18:44.011Z,31.33
2023-02-05T09:21:11.272Z,36.00
2023-02-05T09:23:38.428Z,29.50
2023-02-05T09:26:06.124Z,33.75
2023-02-05T09:28:33.347Z,23.00
2023-02-05T09:31:10.612Z,28.50
2023-02-05T09:33:37.734Z,28.75
2023-02-05T09:36:09.394Z,29.00
2023-02-05T09:38:36.622Z,30.75
2023-02-05T09:41:10.042Z,26.00
2023-02-05T09:43:50.478Z,24.00
2023-02-05T09:46:32.288Z,20.00
2023-02-05T09:49:07.952Z,33.25
2023-02-05T09:51:40.758Z,33.00
2023-02-05T09:54:20.471Z,26.00
2023-02-05T09:56:50.237Z,26.33
2023-02-05T09:59:22.353Z,25.25
2023-02-05T10:01:55.088Z,30.67
2023-02-05T10:04:22.246Z,22.75
2023-02-05T10:07:25.628Z,22.50
2023-02-05T10:10:23.229Z,26.33
2023-02-05T10:13:15.413Z,24.00
2023-02-05T10:16:20.458Z,23.50
2023-02-05T10:19:07.012Z,26.50
2023-02-05T10:22:01.325Z,25.25
2023-02-05T10:24:54.596Z,25.50
2023-02-05T10:27:24.488Z,30.50
2023-02-05T10:30:03.659Z,29.00
2023-02-05T10:32:47.700Z,24.50
2023-02-05T10:35:25.060Z,29.00
2023-02-05T10:37:55.066Z,29.75
2023-02-05T10:40:27.318Z,25.50
2023-02-05T10:43:02.902Z,32.75
2023-02-05T10:45:30.864Z,26.75
2023-02-05T10:48:22.567Z,24.50
2023-02-05T10:50:59.652Z,23.75
2023-02-05T10:53:29.292Z,38.00
2023-02-05T10:55:59.523Z,29.00
2023-02-05T10:58:38.580Z,29.25
2023-02-05T11:01:07.655Z,30.33
2023-02-05T11:03:35.795Z,26.75
2023-02-05T11:06:10.664Z,25.50
2023-02-05T11:08:42.691Z,25.75
2023-02-05T11:11:23.349Z,26.50
2023-02-05T11:13:55.708Z,23.25
2023-02-05T11:16:33.882Z,29.25
2023-02-05T11:19:01.890Z,28.00
2023-02-05T11:38:58.323Z,27.25
2023-02-05T11:41:32.646Z,29.50
2023-02-05T11:44:04.934Z,21.75
2023-02-05T11:46:43.066Z,23.25
2023-02-05T11:49:24.812Z,27.00
2023-02-05T11:51:56.476Z,26.25
2023-02-05T11:54:36.289Z,24.00
2023-02-05T11:57:07.490Z,29.75
2023-02-05T12:01:18.723Z,33.00
2023-02-05T12:03:05.109Z,30.75
2023-02-05T12:09:03.962Z,22.50
2023-02-05T12:12:22.658Z,21.00
2023-02-05T12:15:07.942Z,29.50
2023-02-05T12:18:01.184Z,24.75
2023-02-05T12:20:37.366Z,25.25
2023-02-05T12:23:41.395Z,31.00
2023-02-05T12:34:04.919Z,25.25
2023-02-05T12:36:48.246Z,25.00
2023-02-05T12:39:45.692Z,26.25
2023-02-05T12:42:31.581Z,26.00
2023-02-05T12:45:30.111Z,24.25
2023-02-05T12:48:56.762Z,27.00
2023-02-05T12:51:43.127Z,23.50
2023-02-05T12:55:00.432Z,25.75
2023-02-05T12:57:46.228Z,20.00
2023-02-05T13:00:19.707Z,22.25
2023-02-05T13:02:58.577Z,28.50
2023-02-05T13:05:50.472Z,21.75
2023-02-05T13:08:29.012Z,21.50
2023-02-05T13:11:04.553Z,22.75
2023-02-05T13:13:44.762Z,43.50
2023-02-05T13:16:17.166Z,10.75
2023-02-05T13:18:54.786Z,18.25
2023-02-05T13:25:38.358Z,16.00
2023-02-05T13:28:51.932Z,25.75
2023-02-05T13:32:10.582Z,17.50
2023-02-05T13:34:42.253Z,31.25
2023-02-05T13:37:34.070Z,20.75
2023-02-05T13:40:34.267Z,17.00
2023-02-05T13:43:55.722Z,15.50
2023-02-05T13:47:13.528Z,13.50
2023-02-05T13:50:24.998Z,14.00
2023-02-05T13:57:09.887Z,10.75
2023-02-05T13:59:43.265Z,12.75
2023-02-05T14:02:33.207Z,34.50
2023-02-05T14:05:02.720Z,16.50
2023-02-05T14:07:32.941Z,18.75
2023-02-05T14:10:01.796Z,16.75
2023-02-05T14:12:33.825Z,12.75
2023-02-05T14:15:36.153Z,15.00
2023-02-05T14:18:03.605Z,14.25
2023-02-05T14:20:37.743Z,10.50
2023-02-05T14:24:00.688Z,12.75
2023-02-05T14:26:53.911Z,14.50
2023-02-05T14:29:43.552Z,14.00
2023-02-05T14:32:59.002Z,12.50
2023-02-05T14:39:41.312Z,16.25
2023-02-05T14:48:35.127Z,22.00
2023-02-05T14:51:20.134Z,21.50
2023-02-05T14:53:59.030Z,17.25
2023-02-05T14:56:39.006Z,16.50
2023-02-05T14:59:24.311Z,13.50
2023-02-05T15:01:53.358Z,15.00
2023-02-05T15:04:38.372Z,18.00
2023-02-05T15:07:13.433Z,15.75
2023-02-05T15:09:46.599Z,17.75
2023-02-05T15:12:58.706Z,20.00
2023-02-05T15:15:31.291Z,24.75
2023-02-05T15:18:10.078Z,16.25
2023-02-05T15:20:39.668Z,15.75
2023-02-05T15:23:21.180Z,16.75
2023-02-05T15:25:58.232Z,11.50
2023-02-05T15:28:32.297Z,10.00
2023-02-05T15:31:29.319Z,10.50
2023-02-05T15:34:06.583Z,9.00
2023-02-05T15:36:42.007Z,11.00
2023-02-05T15:39:21.767Z,14.50
2023-02-05T15:41:49.048Z,14.25
2023-02-05T15:44:26.014Z,15.25
2023-02-05T15:46:55.974Z,11.25
2023-02-05T15:49:34.945Z,14.00
2023-02-05T15:52:03.289Z,14.25
2023-02-05T15:54:36.610Z,30.50
2023-02-05T15:57:05.344Z,32.25
2023-02-05T15:59:34.832Z,34.75
2023-02-05T16:02:16.750Z,32.75
2023-02-05T16:04:43.905Z,36.25
2023-02-05T16:07:19.985Z,40.25
2023-02-05T16:09:51.306Z,38.50
2023-02-05T16:12:22.283Z,33.00
2023-02-05T16:15:00.761Z,24.50
2023-02-05T16:17:37.744Z,27.25
2023-02-05T16:20:23.301Z,30.25
2023-02-05T16:22:56.803Z,43.00
2023-02-05T16:25:39.524Z,47.00
2023-02-05T16:28:16.680Z,40.00
2023-02-05T16:30:48.944Z,35.00
2023-02-05T16:33:30.581Z,14.25
2023-02-05T16:36:01.389Z,13.25
2023-02-05T16:38:29.659Z,13.00
2023-02-05T16:41:08.611Z,10.75
2023-02-05T16:43:38.793Z,13.25
2023-02-05T16:46:35.241Z,13.25
2023-02-05T16:49:31.901Z,15.50
2023-02-05T16:51:58.839Z,18.75
2023-02-05T16:54:33.151Z,17.00
2023-02-05T16:57:12.356Z,17.00
2023-02-05T16:59:51.368Z,20.00
2023-02-05T17:02:29.190Z,18.50
2023-02-05T17:05:02.328Z,21.00
2023-02-05T17:07:31.515Z,18.25
2023-02-05T17:10:22.032Z,16.00
2023-02-05T17:12:55.515Z,15.50
2023-02-05T17:15:40.065Z,15.00
2023-02-05T17:18:24.564Z,13.00
2023-02-05T17:21:24.684Z,16.50
2023-02-05T17:23:53.412Z,36.00
2023-02-05T17:26:20.907Z,17.50
2023-02-05T17:28:54.390Z,19.00
2023-02-05T17:31:22.758Z,17.25
2023-02-05T17:33:51.192Z,14.25
2023-02-05T17:36:20.576Z,15.00
2023-02-05T17:38:47.744Z,12.50
2023-02-05T17:41:19.234Z,14.75
2023-02-05T17:43:46.288Z,11.00
2023-02-05T17:46:14.124Z,12.00
2023-02-05T17:48:41.369Z,9.00
2023-02-05T17:51:20.170Z,9.50
2023-02-05T17:53:47.608Z,8.75
2023-02-05T17:56:14.399Z,10.75
2023-02-05T17:58:41.621Z,9.75
2023-02-05T18:01:08.599Z,12.25
2023-02-05T18:03:35.458Z,12.50
2023-02-05T18:06:02.307Z,12.50
2023-02-05T18:08:31.413Z,8.75
2023-02-05T18:10:58.227Z,12.50
2023-02-05T18:13:25.140Z,12.50
2023-02-05T18:15:54.597Z,15.00
2023-02-05T18:18:22.685Z,16.00
2023-02-05T18:20:49.497Z,13.50
2023-02-05T18:23:27.560Z,15.75
2023-02-05T18:25:59.241Z,13.75
2023-02-05T18:28:27.015Z,18.75
2023-02-05T18:31:01.308Z,15.00
2023-02-05T18:33:28.910Z,14.75
2023-02-05T18:36:00.479Z,14.00
2023-02-05T18:38:27.715Z,17.50
2023-02-05T18:40:54.450Z,15.00
2023-02-05T18:43:22.713Z,16.25
2023-02-05T18:45:50.274Z,16.00
2023-02-05T18:48:17.186Z,15.75
2023-02-05T18:50:44.169Z,15.75
2023-02-05T18:53:10.938Z,14.25
2023-02-05T18:55:37.753Z,15.50
2023-02-05T18:58:05.338Z,57.33
2023-02-05T19:00:33.959Z,15.50
2023-02-05T19:03:01.115Z,15.50
2023-02-05T19:05:27.944Z,15.00
2023-02-05T19:07:54.737Z,14.25
2023-02-05T19:10:21.537Z,16.75
2023-02-05T19:12:48.666Z,15.50
2023-02-05T19:15:15.614Z,15.00
2023-02-05T19:17:43.827Z,22.00
2023-02-05T19:20:11.388Z,19.50
2023-02-05T19:22:38.201Z,20.25
2023-02-05T19:25:05.948Z,23.00
2023-02-05T19:27:32.912Z,24.00
2023-02-05T19:29:59.723Z,17.25
2023-02-05T19:32:26.605Z,22.75
2023-02-05T19:34:54.979Z,18.00
2023-02-05T19:37:21.746Z,17.75
2023-02-05T19:39:48.514Z,21.75
2023-02-05T19:42:15.270Z,18.25
2023-02-05T19:44:42.212Z,22.33
2023-02-05T19:47:09.273Z,17.25
2023-02-05T19:49:36.181Z,20.00
2023-02-05T19:52:05.016Z,22.00
2023-02-05T19:54:32.101Z,23.50
2023-02-05T19:56:59.242Z,19.50
2023-02-05T19:59:26.695Z,26.00
2023-02-05T20:01:53.897Z,23.00
2023-02-05T20:04:23.849Z,23.75
2023-02-05T20:06:56.459Z,27.25
2023-02-05T20:09:26.412Z,24.00
2023-02-05T20:11:53.532Z,22.50
2023-02-05T20:14:22.547Z,22.25
2023-02-05T20:16:50.089Z,24.00
2023-02-05T20:19:18.447Z,19.75
2023-02-05T20:21:46.742Z,26.50
2023-02-05T20:24:14.648Z,26.50
2023-02-05T20:26:43.631Z,24.25
2023-02-05T20:29:11.494Z,28.25
2023-02-05T20:31:41.938Z,25.75
2023-02-05T20:34:13.066Z,23.50
2023-02-05T20:36:39.880Z,26.50
2023-02-05T20:39:07.673Z,24.50
2023-02-05T20:41:35.463Z,27.50
2023-02-05T20:44:04.426Z,29.50
2023-02-05T20:46:31.418Z,23.50
2023-02-05T20:48:59.653Z,30.00
2023-02-05T20:51:27.245Z,27.67
2023-02-05T20:53:56.516Z,26.33
2023-02-05T20:56:24.753Z,26.50
2023-02-05T20:58:52.520Z,31.00
2023-02-05T21:01:23.815Z,27.00
2023-02-05T21:03:53.756Z,33.00
2023-02-05T21:06:23.840Z,28.25
2023-02-05T21:08:52.643Z,26.25
2023-02-05T21:11:23.137Z,33.00
2023-02-05T21:13:51.509Z,30.00
2023-02-05T21:16:22.945Z,31.50
2023-02-05T21:18:51.954Z,27.75
2023-02-05T21:21:22.781Z,34.75
2023-02-05T21:23:53.941Z,33.50
2023-02-05T21:26:25.237Z,37.75
2023-02-05T21:28:53.088Z,33.00
2023-02-05T21:31:22.787Z,36.67
2023-02-05T21:33:49.814Z,33.67
2023-02-05T21:36:17.528Z,33.25
2023-02-05T21:38:44.819Z,31.50
2023-02-05T21:41:15.296Z,31.50
2023-02-05T21:43:43.346Z,37.00
2023-02-05T21:46:12.929Z,42.67
2023-02-05T21:48:41.075Z,37.25
2023-02-05T21:51:10.998Z,35.67
2023-02-05T21:53:38.514Z,29.00
2023-02-05T21:56:08.932Z,33.50
2023-02-05T21:58:37.765Z,43.75
2023-02-05T22:01:13.571Z,35.00
2023-02-05T22:03:43.790Z,37.25
2023-02-05T22:06:10.829Z,31.25
2023-02-05T22:08:40.121Z,32.25
2023-02-05T22:11:10.883Z,34.00
2023-02-05T22:13:40.360Z,33.25
2023-02-05T22:16:10.602Z,30.33
2023-02-05T22:18:38.760Z,36.25
2023-02-05T22:21:09.981Z,38.67
2023-02-05T22:23:36.748Z,38.00
2023-02-05T22:26:04.959Z,39.33
2023-02-05T22:28:32.520Z,39.00
2023-02-05T22:31:01.666Z,39.00
2023-02-05T22:33:30.429Z,38.67
2023-02-05T22:35:58.717Z,38.00
2023-02-05T22:38:31.425Z,43.33
2023-02-05T22:40:59.377Z,40.50
2023-02-05T22:43:27.725Z,37.50
2023-02-05T22:45:54.608Z,44.50
2023-02-05T22:48:21.489Z,41.33
2023-02-05T22:50:48.408Z,42.67
2023-02-05T22:53:16.170Z,36.67
2023-02-05T22:55:44.366Z,39.67
2023-02-05T22:58:11.162Z,44.33
2023-02-05T23:00:38.031Z,35.00
2023-02-05T23:03:04.773Z,45.67
2023-02-05T23:05:33.487Z,50.33
2023-02-05T23:08:00.885Z,30.00
2023-02-05T23:10:28.259Z,43.00
2023-02-05T23:12:56.750Z,27.33
2023-02-05T23:15:23.992Z,41.33
2023-02-05T23:17:51.126Z,38.50
2023-02-05T23:20:18.429Z,45.00
2023-02-05T23:22:45.271Z,39.50
2023-02-05T23:25:12.178Z,47.25
2023-02-05T23:27:39.958Z,39.67
2023-02-05T23:30:10.154Z,38.00
2023-02-05T23:32:38.257Z,44.00
2023-02-05T23:35:06.626Z,45.00
2023-02-05T23:37:33.525Z,42.50
2023-02-05T23:40:00.393Z,42.00
2023-02-05T23:42:27.415Z,39.25
2023-02-05T23:44:54.218Z,41.25
2023-02-05T23:47:22.672Z,42.00
2023-02-05T23:49:49.432Z,35.33
2023-02-05T23:52:16.245Z,39.75
2023-02-05T23:54:43.248Z,43.00
2023-02-05T23:57:10.822Z,40.33
2023-02-05T23:59:37.598Z,41.67
